createdAt,value
2018-07-17T00:00:29.761Z,18.80
2018-07-17T00:02:56.622Z,18.80
2018-07-17T00:05:23.517Z,18.80
2018-07-17T00:07:50.384Z,18.80
2018-07-17T00:10:17.295Z,18.80
2018-07-17T00:12:44.166Z,18.80
2018-07-17T00:15:11.081Z,18.80
2018-07-17T00:17:38.009Z,18.80
2018-07-17T00:20:05.164Z,18.80
2018-07-17T00:22:32.040Z,18.70
2018-07-17T00:24:59.215Z,18.70
2018-07-17T00:27:26.093Z,18.70
2018-07-17T00:29:52.991Z,18.80
2018-07-17T00:32:19.856Z,18.70
2018-07-17T00:34:46.748Z,18.70
2018-07-17T00:37:13.610Z,18.60
2018-07-17T00:39:40.490Z,18.60
2018-07-17T00:42:07.372Z,18.60
2018-07-17T00:44:34.260Z,18.50
2018-07-17T00:47:01.132Z,18.50
2018-07-17T00:49:28.020Z,18.50
2018-07-17T00:51:54.890Z,18.50
2018-07-17T00:54:21.778Z,18.50
2018-07-17T00:56:48.639Z,18.50
2018-07-17T00:59:15.555Z,18.60
2018-07-17T01:01:48.039Z,18.60
2018-07-17T01:04:20.611Z,18.70
2018-07-17T01:06:53.233Z,18.70
2018-07-17T01:09:25.894Z,18.70
2018-07-17T01:11:58.588Z,18.70
2018-07-17T01:14:30.385Z,18.80
2018-07-17T01:16:59.209Z,18.80
2018-07-17T01:19:26.941Z,18.70
2018-07-17T01:21:53.811Z,18.70
2018-07-17T01:24:20.855Z,18.70
2018-07-17T01:26:47.725Z,18.80
2018-07-17T01:29:14.600Z,18.80
2018-07-17T01:31:41.551Z,18.80
2018-07-17T01:34:08.412Z,18.80
2018-07-17T01:36:35.306Z,18.80
2018-07-17T01:39:02.171Z,18.80
2018-07-17T01:41:29.059Z,18.80
2018-07-17T01:43:55.919Z,18.80
2018-07-17T01:46:22.803Z,18.80
2018-07-17T01:48:49.671Z,18.80
2018-07-17T01:51:16.872Z,18.80
2018-07-17T01:53:43.740Z,18.70
2018-07-17T01:56:10.635Z,18.70
2018-07-17T01:58:37.515Z,18.60
2018-07-17T02:01:04.404Z,18.60
2018-07-17T02:03:31.575Z,18.60
2018-07-17T02:05:58.472Z,18.60
2018-07-17T02:08:25.339Z,18.50
2018-07-17T02:10:52.247Z,18.50
2018-07-17T02:13:20.184Z,18.40
2018-07-17T02:15:47.407Z,18.40
2018-07-17T02:18:14.277Z,18.30
2018-07-17T02:20:41.168Z,18.20
2018-07-17T02:23:08.135Z,18.10
2018-07-17T02:25:35.044Z,18.20
2018-07-17T02:28:01.912Z,18.20
2018-07-17T02:30:28.806Z,18.10
2018-07-17T02:32:55.663Z,18.10
2018-07-17T02:35:22.553Z,18.00
2018-07-17T02:37:49.419Z,17.90
2018-07-17T02:40:16.340Z,17.90
2018-07-17T02:42:43.228Z,17.90
2018-07-17T02:45:10.143Z,17.80
2018-07-17T02:47:37.015Z,17.80
2018-07-17T02:50:04.137Z,17.80
2018-07-17T02:52:31.031Z,17.80
2018-07-17T02:54:57.902Z,17.80
2018-07-17T02:57:24.791Z,17.80
2018-07-17T02:59:51.668Z,17.70
2018-07-17T03:02:18.568Z,17.70
2018-07-17T03:04:45.436Z,17.90
2018-07-17T03:07:12.438Z,17.90
2018-07-17T03:09:39.235Z,17.90
2018-07-17T03:12:06.143Z,17.90
2018-07-17T03:14:33.011Z,17.90
2018-07-17T03:16:59.904Z,17.90
2018-07-17T03:19:26.780Z,17.80
2018-07-17T03:21:53.726Z,17.80
2018-07-17T03:24:20.575Z,17.80
2018-07-17T03:26:47.460Z,17.80
2018-07-17T03:29:14.325Z,17.80
2018-07-17T03:31:41.212Z,17.90
2018-07-17T03:34:08.074Z,17.90
2018-07-17T03:36:35.038Z,18.00
2018-07-17T03:39:01.888Z,18.00
2018-07-17T03:41:28.775Z,18.00
2018-07-17T03:43:55.640Z,17.90
2018-07-17T03:46:22.523Z,17.90
2018-07-17T03:48:49.395Z,17.90
2018-07-17T03:51:16.312Z,17.80
2018-07-17T03:53:43.180Z,17.60
2018-07-17T03:56:10.067Z,17.50
2018-07-17T03:58:36.935Z,17.50
2018-07-17T04:01:03.850Z,17.50
2018-07-17T04:03:30.714Z,17.50
2018-07-17T04:05:57.595Z,17.50
2018-07-17T04:08:24.470Z,17.50
2018-07-17T04:10:51.359Z,17.50
2018-07-17T04:13:18.316Z,17.50
2018-07-17T04:15:45.164Z,17.50
2018-07-17T04:18:12.064Z,17.60
2018-07-17T04:20:39.188Z,17.60
2018-07-17T04:23:06.076Z,17.60
2018-07-17T04:25:32.943Z,17.70
2018-07-17T04:27:59.836Z,17.80
2018-07-17T04:30:26.703Z,17.90
2018-07-17T04:32:53.591Z,18.00
2018-07-17T04:35:20.465Z,18.10
2018-07-17T04:37:47.359Z,18.20
2018-07-17T04:40:14.464Z,18.30
2018-07-17T04:42:41.355Z,18.50
2018-07-17T04:45:08.229Z,18.60
2018-07-17T04:47:35.127Z,18.80
2018-07-17T04:50:02.027Z,19.00
2018-07-17T04:52:29.212Z,19.10
2018-07-17T04:54:56.088Z,19.20
2018-07-17T04:57:23.012Z,19.30
2018-07-17T04:59:50.219Z,19.40
2018-07-17T05:02:17.109Z,19.40
2018-07-17T05:04:43.979Z,19.40
2018-07-17T05:07:10.880Z,19.40
2018-07-17T05:09:37.771Z,19.50
2018-07-17T05:12:04.739Z,19.40
2018-07-17T05:14:31.619Z,19.40
2018-07-17T05:16:58.508Z,19.40
2018-07-17T05:19:25.384Z,19.50
2018-07-17T05:21:52.280Z,19.50
2018-07-17T05:26:46.049Z,19.70
2018-07-17T05:29:12.975Z,19.80
2018-07-17T05:31:39.851Z,19.80
2018-07-17T05:36:33.919Z,19.90
2018-07-17T05:39:00.819Z,20.00
2018-07-17T05:41:27.703Z,20.10
2018-07-17T05:43:54.591Z,20.10
2018-07-17T05:46:21.466Z,20.20
2018-07-17T05:48:48.544Z,20.20
2018-07-17T05:51:15.559Z,20.20
2018-07-17T05:53:42.459Z,20.30
2018-07-17T05:56:09.343Z,20.30
2018-07-17T05:58:36.228Z,20.40
2018-07-17T06:01:03.099Z,20.40
2018-07-17T06:03:30.075Z,20.50
2018-07-17T06:05:56.884Z,20.70
2018-07-17T06:08:23.775Z,20.80
2018-07-17T06:10:50.668Z,21.00
2018-07-17T06:13:17.560Z,21.20
2018-07-17T06:15:44.736Z,21.30
2018-07-17T06:18:11.636Z,21.60
2018-07-17T06:20:38.504Z,21.80
2018-07-17T06:23:05.456Z,22.10
2018-07-17T06:25:32.595Z,22.50
2018-07-17T06:27:59.496Z,22.80
2018-07-17T06:30:26.360Z,23.20
2018-07-17T06:32:53.263Z,23.70
2018-07-17T06:35:20.147Z,24.30
2018-07-17T06:37:47.035Z,25.00
2018-07-17T06:40:13.931Z,25.60
2018-07-17T06:42:40.815Z,26.10
2018-07-17T06:45:07.687Z,26.60
2018-07-17T06:47:34.607Z,27.10
2018-07-17T06:50:01.657Z,27.40
2018-07-17T06:52:28.757Z,28.00
2018-07-17T06:54:55.645Z,28.00
2018-07-17T06:57:22.841Z,28.20
2018-07-17T06:59:49.708Z,28.40
2018-07-17T07:02:16.567Z,28.90
2018-07-17T07:04:43.451Z,29.30
2018-07-17T07:07:10.324Z,29.50
2018-07-17T07:09:37.236Z,29.90
2018-07-17T07:12:04.451Z,30.20
2018-07-17T07:14:31.343Z,30.40
2018-07-17T07:16:58.207Z,30.60
2018-07-17T07:19:25.099Z,31.00
2018-07-17T07:21:51.972Z,31.40
2018-07-17T07:24:18.871Z,31.80
2018-07-17T07:26:46.035Z,32.10
2018-07-17T07:29:12.927Z,32.40
2018-07-17T07:31:39.795Z,32.40
2018-07-17T07:36:33.567Z,32.90
2018-07-17T07:39:00.459Z,33.20
2018-07-17T07:41:27.324Z,33.40
2018-07-17T07:43:54.211Z,33.50
2018-07-17T07:46:21.097Z,33.80
2018-07-17T07:48:47.979Z,33.70
2018-07-17T07:51:14.847Z,33.80
2018-07-17T07:53:41.734Z,34.20
2018-07-17T07:56:08.607Z,34.40
2018-07-17T07:58:35.515Z,34.40
2018-07-17T08:01:02.403Z,34.60
2018-07-17T08:03:29.330Z,35.00
2018-07-17T08:05:56.202Z,34.90
2018-07-17T08:08:23.090Z,34.90
2018-07-17T08:10:49.982Z,34.70
2018-07-17T08:13:16.887Z,33.60
2018-07-17T08:15:43.792Z,33.00
2018-07-17T08:18:10.663Z,33.20
2018-07-17T08:20:37.644Z,33.50
2018-07-17T08:23:04.516Z,33.80
2018-07-17T08:25:31.432Z,34.30
2018-07-17T08:27:58.295Z,34.70
2018-07-17T08:30:25.223Z,35.40
2018-07-17T08:32:52.091Z,36.10
2018-07-17T08:35:18.975Z,36.40
2018-07-17T08:37:45.850Z,36.60
2018-07-17T08:40:12.752Z,36.40
2018-07-17T08:45:06.823Z,36.60
2018-07-17T08:47:33.700Z,35.50
2018-07-17T08:50:00.907Z,35.50
2018-07-17T08:52:27.778Z,35.90
2018-07-17T08:54:54.679Z,36.20
2018-07-17T08:57:21.552Z,36.70
2018-07-17T08:59:48.446Z,37.50
2018-07-17T09:02:15.327Z,38.10
2018-07-17T09:04:42.223Z,39.20
2018-07-17T09:07:09.083Z,40.30
2018-07-17T09:09:35.991Z,40.80
2018-07-17T09:12:02.859Z,40.20
2018-07-17T09:14:29.754Z,39.70
2018-07-17T09:16:56.627Z,40.10
2018-07-17T09:19:23.522Z,39.60
2018-07-17T09:21:50.395Z,38.70
2018-07-17T09:24:17.289Z,37.90
2018-07-17T09:26:44.156Z,39.00
2018-07-17T09:29:11.067Z,38.40
2018-07-17T09:31:37.942Z,36.60
2018-07-17T09:34:04.813Z,35.30
2018-07-17T09:36:31.715Z,35.60
2018-07-17T09:38:58.607Z,37.00
2018-07-17T09:41:25.571Z,38.70
2018-07-17T09:43:52.443Z,38.80
2018-07-17T09:46:19.339Z,37.60
2018-07-17T09:48:46.207Z,37.30
2018-07-17T09:51:13.132Z,36.00
2018-07-17T09:53:40.020Z,34.90
2018-07-17T09:56:06.920Z,34.30
2018-07-17T09:58:33.783Z,35.20
2018-07-17T10:01:06.360Z,36.20
2018-07-17T10:03:33.240Z,36.40
2018-07-17T10:06:00.128Z,36.90
2018-07-17T10:10:53.908Z,40.10
2018-07-17T10:13:20.780Z,39.30
2018-07-17T10:15:47.672Z,38.10
2018-07-17T10:18:14.820Z,37.60
2018-07-17T10:20:41.712Z,39.30
2018-07-17T10:23:08.580Z,40.30
2018-07-17T10:25:35.472Z,40.90
2018-07-17T10:28:02.667Z,42.30
2018-07-17T10:30:29.559Z,43.00
2018-07-17T10:32:56.680Z,43.70
2018-07-17T10:35:23.564Z,44.40
2018-07-17T10:37:50.436Z,45.20
2018-07-17T10:40:17.323Z,45.50
2018-07-17T10:42:44.207Z,46.10
2018-07-17T10:45:11.103Z,45.70
2018-07-17T10:47:37.998Z,43.90
2018-07-17T10:50:04.896Z,42.00
2018-07-17T10:52:31.760Z,40.30
2018-07-17T10:54:58.780Z,38.80
2018-07-17T10:57:26.100Z,37.50
2018-07-17T10:59:52.959Z,36.70
2018-07-17T11:02:19.850Z,36.20
2018-07-17T11:04:46.715Z,37.20
2018-07-17T11:07:13.641Z,39.50
2018-07-17T11:09:40.536Z,41.70
2018-07-17T11:12:07.468Z,43.30
2018-07-17T11:14:34.424Z,44.40
2018-07-17T11:17:01.316Z,45.80
2018-07-17T11:19:28.179Z,45.00
2018-07-17T11:21:55.068Z,44.30
2018-07-17T11:24:21.930Z,45.00
2018-07-17T11:26:48.823Z,46.30
2018-07-17T11:29:15.688Z,47.10
2018-07-17T11:31:42.980Z,46.20
2018-07-17T11:34:09.847Z,44.70
2018-07-17T11:36:36.741Z,43.70
2018-07-17T11:39:04.644Z,41.30
2018-07-17T11:41:31.536Z,40.80
2018-07-17T11:43:58.411Z,42.10
2018-07-17T11:46:25.300Z,43.60
2018-07-17T11:48:52.163Z,44.90
2018-07-17T11:51:19.052Z,45.90
2018-07-17T11:53:45.911Z,47.20
2018-07-17T11:56:12.795Z,47.20
2018-07-17T11:58:39.658Z,47.00
2018-07-17T12:01:06.552Z,42.20
2018-07-17T12:03:33.417Z,40.00
2018-07-17T12:06:00.500Z,39.00
2018-07-17T12:08:27.246Z,37.90
2018-07-17T12:10:54.155Z,36.20
2018-07-17T12:13:21.922Z,35.40
2018-07-17T12:15:48.795Z,36.50
2018-07-17T12:18:15.684Z,38.20
2018-07-17T12:20:42.559Z,40.30
2018-07-17T12:23:09.443Z,42.10
2018-07-17T12:25:36.579Z,41.20
2018-07-17T12:28:03.736Z,40.50
2018-07-17T12:30:30.545Z,39.10
2018-07-17T12:32:57.426Z,37.90
2018-07-17T12:35:24.287Z,36.80
2018-07-17T12:37:51.511Z,35.80
2018-07-17T12:40:18.575Z,35.50
2018-07-17T12:42:45.458Z,35.40
2018-07-17T12:45:12.551Z,36.90
2018-07-17T12:47:39.470Z,38.40
2018-07-17T12:50:06.340Z,40.60
2018-07-17T12:52:33.236Z,42.40
2018-07-17T12:55:00.104Z,41.80
2018-07-17T12:57:26.991Z,39.50
2018-07-17T12:59:53.883Z,37.90
2018-07-17T13:02:20.776Z,37.00
2018-07-17T13:04:47.675Z,36.10
2018-07-17T13:07:14.567Z,35.60
2018-07-17T13:09:41.483Z,36.60
2018-07-17T13:12:08.368Z,36.30
2018-07-17T13:14:35.244Z,36.20
2018-07-17T13:17:02.376Z,37.60
2018-07-17T13:19:29.247Z,37.90
2018-07-17T13:21:56.143Z,38.50
2018-07-17T13:24:23.049Z,38.70
2018-07-17T13:26:49.954Z,37.80
2018-07-17T13:29:16.840Z,37.80
2018-07-17T13:31:43.732Z,38.40
2018-07-17T13:34:10.604Z,38.50
2018-07-17T13:36:37.508Z,38.30
2018-07-17T13:39:06.497Z,37.50
2018-07-17T13:41:33.382Z,37.10
2018-07-17T13:44:00.275Z,36.00
2018-07-17T13:46:27.147Z,36.20
2018-07-17T13:48:54.044Z,36.60
2018-07-17T13:51:20.920Z,36.80
2018-07-17T13:53:47.819Z,36.10
2018-07-17T13:56:15.074Z,36.40
2018-07-17T13:58:41.920Z,37.50
2018-07-17T14:01:08.795Z,38.50
2018-07-17T14:03:35.687Z,39.70
2018-07-17T14:06:02.560Z,40.20
2018-07-17T14:08:29.852Z,39.40
2018-07-17T14:10:56.735Z,38.90
2018-07-17T14:13:23.627Z,38.10
2018-07-17T14:15:50.508Z,36.50
2018-07-17T14:18:17.408Z,36.60
2018-07-17T14:20:44.279Z,37.40
2018-07-17T14:23:11.175Z,37.90
2018-07-17T14:25:38.039Z,38.60
2018-07-17T14:28:04.935Z,39.10
2018-07-17T14:30:31.804Z,38.70
2018-07-17T14:32:58.687Z,37.30
2018-07-17T14:35:25.559Z,37.40
2018-07-17T14:37:52.459Z,37.50
2018-07-17T14:40:19.328Z,36.90
2018-07-17T14:42:46.371Z,36.80
2018-07-17T14:45:13.253Z,37.20
2018-07-17T14:47:40.148Z,37.30
2018-07-17T14:50:07.276Z,36.80
2018-07-17T14:52:34.167Z,36.70
2018-07-17T14:55:01.031Z,37.00
2018-07-17T14:57:27.935Z,37.20
2018-07-17T14:59:55.115Z,36.60
2018-07-17T15:02:22.227Z,36.10
2018-07-17T15:04:49.115Z,36.80
2018-07-17T15:07:16.242Z,37.30
2018-07-17T15:09:43.159Z,37.10
2018-07-17T15:12:10.036Z,37.20
2018-07-17T15:14:36.932Z,36.60
2018-07-17T15:17:03.810Z,35.70
2018-07-17T15:19:30.699Z,35.60
2018-07-17T15:21:57.574Z,35.50
2018-07-17T15:24:24.483Z,35.50
2018-07-17T15:26:51.356Z,35.90
2018-07-17T15:29:18.342Z,35.90
2018-07-17T15:31:45.211Z,35.30
2018-07-17T15:34:12.103Z,34.50
2018-07-17T15:36:38.981Z,34.50
2018-07-17T15:39:06.720Z,34.60
2018-07-17T15:41:33.585Z,34.80
2018-07-17T15:44:00.475Z,35.10
2018-07-17T15:46:27.335Z,35.30
2018-07-17T15:48:54.269Z,35.00
2018-07-17T15:51:21.119Z,34.60
2018-07-17T15:53:48.008Z,35.00
2018-07-17T15:56:14.875Z,34.90
2018-07-17T15:58:41.763Z,34.80
2018-07-17T16:01:08.640Z,34.50
2018-07-17T16:03:35.560Z,34.20
2018-07-17T16:06:02.447Z,34.00
2018-07-17T16:08:29.347Z,34.00
2018-07-17T16:10:56.248Z,33.60
2018-07-17T16:13:23.245Z,32.80
2018-07-17T16:15:50.032Z,32.10
2018-07-17T16:18:16.929Z,32.20
2018-07-17T16:20:43.808Z,31.90
2018-07-17T16:23:10.678Z,31.30
2018-07-17T16:25:37.571Z,30.90
2018-07-17T16:28:04.651Z,31.10
2018-07-17T16:30:31.550Z,30.90
2018-07-17T16:32:58.450Z,30.60
2018-07-17T16:35:25.461Z,30.10
2018-07-17T16:37:52.340Z,29.90
2018-07-17T16:42:46.111Z,29.50
2018-07-17T16:45:13.327Z,29.40
2018-07-17T16:47:40.210Z,29.30
2018-07-17T16:50:07.109Z,29.10
2018-07-17T16:52:33.980Z,29.10
2018-07-17T16:55:01.032Z,29.00
2018-07-17T16:57:27.903Z,28.90
2018-07-17T16:59:54.791Z,28.90
2018-07-17T17:02:21.688Z,28.80
2018-07-17T17:07:15.758Z,28.80
2018-07-17T17:09:42.762Z,28.70
2018-07-17T17:12:09.707Z,28.60
2018-07-17T17:14:36.586Z,28.50
2018-07-17T17:17:03.449Z,28.40
2018-07-17T17:19:30.331Z,28.30
2018-07-17T17:21:57.206Z,28.30
2018-07-17T17:24:24.139Z,28.20
2018-07-17T17:29:17.940Z,28.10
2018-07-17T17:31:44.759Z,28.00
2018-07-17T17:34:11.668Z,28.00
2018-07-17T17:36:38.606Z,27.90
2018-07-17T17:39:06.768Z,27.80
2018-07-17T17:41:33.643Z,27.70
2018-07-17T17:44:00.840Z,27.60
2018-07-17T17:46:27.727Z,27.50
2018-07-17T17:48:54.591Z,27.40
2018-07-17T17:51:21.479Z,27.30
2018-07-17T17:53:48.348Z,27.30
2018-07-17T17:56:15.239Z,27.20
2018-07-17T17:58:42.108Z,27.10
2018-07-17T18:01:09.060Z,27.00
2018-07-17T18:03:35.928Z,26.90
2018-07-17T18:06:02.811Z,26.90
2018-07-17T18:08:29.802Z,26.80
2018-07-17T18:10:56.704Z,26.70
2018-07-17T18:15:50.456Z,26.60
2018-07-17T18:18:17.327Z,26.50
2018-07-17T18:23:11.080Z,26.30
2018-07-17T18:25:37.972Z,26.20
2018-07-17T18:28:04.871Z,26.20
2018-07-17T18:30:31.759Z,26.00
2018-07-17T18:32:58.631Z,25.90
2018-07-17T18:35:25.544Z,25.80
2018-07-17T18:37:52.404Z,25.80
2018-07-17T18:40:19.327Z,25.70
2018-07-17T18:42:46.197Z,25.60
2018-07-17T18:45:13.080Z,25.60
2018-07-17T18:47:39.965Z,25.60
2018-07-17T18:50:12.868Z,25.50
2018-07-17T18:52:33.756Z,25.30
2018-07-17T18:55:00.652Z,25.20
2018-07-17T18:57:27.779Z,25.10
2018-07-17T18:59:54.691Z,25.10
2018-07-17T19:02:21.580Z,25.00
2018-07-17T19:04:48.476Z,24.80
2018-07-17T19:07:15.388Z,24.70
2018-07-17T19:09:42.255Z,24.60
2018-07-17T19:12:09.168Z,24.40
2018-07-17T19:14:36.043Z,24.30
2018-07-17T19:17:02.926Z,24.20
2018-07-17T19:19:29.797Z,24.10
2018-07-17T19:21:56.695Z,24.00
2018-07-17T19:26:50.509Z,24.00
2018-07-17T19:29:17.471Z,24.00
2018-07-17T19:31:44.300Z,24.00
2018-07-17T19:34:11.178Z,23.90
2018-07-17T19:36:38.076Z,23.90
2018-07-17T19:39:06.512Z,23.70
2018-07-17T19:41:33.394Z,23.60
2018-07-17T19:44:00.260Z,23.40
2018-07-17T19:46:27.166Z,23.50
2018-07-17T19:48:54.039Z,23.60
2018-07-17T19:51:20.928Z,23.60
2018-07-17T19:53:47.799Z,23.50
2018-07-17T19:56:14.686Z,23.50
2018-07-17T19:58:41.560Z,23.50
2018-07-17T20:01:08.458Z,23.40
2018-07-17T20:03:35.328Z,23.40
2018-07-17T20:06:02.224Z,23.30
2018-07-17T20:08:29.143Z,23.20
2018-07-17T20:10:56.042Z,23.20
2018-07-17T20:13:22.908Z,23.00
2018-07-17T20:15:49.804Z,22.90
2018-07-17T20:20:43.564Z,22.70
2018-07-17T20:23:10.514Z,22.60
2018-07-17T20:25:37.342Z,22.60
2018-07-17T20:28:04.299Z,22.50
2018-07-17T20:30:31.172Z,22.50
2018-07-17T20:32:58.065Z,22.40
2018-07-17T20:35:24.940Z,22.40
2018-07-17T20:37:51.831Z,22.30
2018-07-17T20:40:18.707Z,22.30
2018-07-17T20:42:45.593Z,22.30
2018-07-17T20:45:12.463Z,22.30
2018-07-17T20:47:39.351Z,22.30
2018-07-17T20:50:06.259Z,22.20
2018-07-17T20:52:33.448Z,22.20
2018-07-17T20:55:00.336Z,22.10
2018-07-17T20:57:27.228Z,22.10
2018-07-17T20:59:54.091Z,22.10
2018-07-17T21:02:20.975Z,22.10
2018-07-17T21:04:47.846Z,22.20
2018-07-17T21:07:14.827Z,22.40
2018-07-17T21:09:41.691Z,22.50
2018-07-17T21:12:08.600Z,22.60
2018-07-17T21:14:35.467Z,22.60
2018-07-17T21:17:02.351Z,22.50
2018-07-17T21:19:29.216Z,22.50
2018-07-17T21:21:56.098Z,22.50
2018-07-17T21:24:22.962Z,22.40
2018-07-17T21:26:49.847Z,22.40
2018-07-17T21:29:16.720Z,22.30
2018-07-17T21:31:43.603Z,22.30
2018-07-17T21:34:10.476Z,22.10
2018-07-17T21:36:37.369Z,22.10
2018-07-17T21:39:05.964Z,22.00
2018-07-17T21:41:32.851Z,22.00
2018-07-17T21:43:59.740Z,22.00
2018-07-17T21:46:26.603Z,22.00
2018-07-17T21:48:53.491Z,22.00
2018-07-17T21:51:20.632Z,22.00
2018-07-17T21:53:47.515Z,22.00
2018-07-17T21:56:14.376Z,21.90
2018-07-17T21:58:41.267Z,21.90
2018-07-17T22:01:08.140Z,22.00
2018-07-17T22:03:35.023Z,22.00
2018-07-17T22:06:01.901Z,22.10
2018-07-17T22:08:28.787Z,22.00
2018-07-17T22:10:55.677Z,22.10
2018-07-17T22:13:22.581Z,22.10
2018-07-17T22:15:49.454Z,22.10
2018-07-17T22:18:16.339Z,22.10
2018-07-17T22:20:43.219Z,22.10
2018-07-17T22:23:10.120Z,22.00
2018-07-17T22:25:36.995Z,22.00
2018-07-17T22:28:04.138Z,22.10
2018-07-17T22:30:30.999Z,22.10
2018-07-17T22:32:57.889Z,22.10
2018-07-17T22:35:24.759Z,22.10
2018-07-17T22:37:51.648Z,22.00
2018-07-17T22:40:18.515Z,22.00
2018-07-17T22:42:45.409Z,22.00
2018-07-17T22:45:12.511Z,21.90
2018-07-17T22:47:39.408Z,21.90
2018-07-17T22:50:06.279Z,21.80
2018-07-17T22:52:33.174Z,21.70
2018-07-17T22:55:00.078Z,21.60
2018-07-17T22:57:26.967Z,21.60
2018-07-17T22:59:53.859Z,21.60
2018-07-17T23:02:20.741Z,21.60
2018-07-17T23:04:47.687Z,21.50
2018-07-17T23:07:14.560Z,21.50
2018-07-17T23:09:41.488Z,21.40
2018-07-17T23:12:08.400Z,21.40
2018-07-17T23:14:35.296Z,21.30
2018-07-17T23:17:02.173Z,21.30
2018-07-17T23:19:29.063Z,21.30
2018-07-17T23:21:55.939Z,21.30
2018-07-17T23:24:22.852Z,21.10
2018-07-17T23:29:21.716Z,21.10
2018-07-17T23:31:48.588Z,21.10
2018-07-17T23:34:15.488Z,21.00
2018-07-17T23:36:42.359Z,20.90
2018-07-17T23:39:10.649Z,20.90
2018-07-17T23:41:37.520Z,20.80
2018-07-17T23:44:04.423Z,20.80
2018-07-17T23:46:31.481Z,20.70
2018-07-17T23:48:58.384Z,20.60
2018-07-17T23:51:25.255Z,20.60
2018-07-17T23:53:52.148Z,20.50
2018-07-17T23:56:19.243Z,20.50
2018-07-17T23:58:46.128Z,20.40
